Montgomery Regional (Dannelly Field) Airport
KMGM : now visible

Airfield :











YOU CAN JOIN US ON...

 
LOGIN :

Register | Disclaimer

   EN    FR    IT 

 









Legend :    VFR   Marginal VFR   IFR   Intensive IFR   Very Intensive IFR
Visi :
Ceiling :
>= 8 km
>= 3000ft
5 to 8 km
1000 to 3000 ft
1500m to 5 km
500 to 1000 ft
800 to 1500m
200 to 500 ft
< 800m
< 200 ft
Symbols :   Thunderstorms  Fog  Heavy snow  Heavy precipitations  Wind > 20 kt






- Airport Elevation : 221 ft
- IATA code : MGM


KMGM - Montgomery Regional (Dannelly Field)

CURRENT METAR :
  • 071453Z 00000KT 10SM CLR 31/23 A3007 RMK AO2 SLP179 T03060228 50005

EXPIRED METARs :
  • 071353Z 00000KT 10SM CLR 27/22 A3007 RMK AO2 SLP179 T02720222
  • 071253Z 00000KT 10SM SCT060 25/22 A3006 RMK AO2 SLP176 T02500217

TAF KMGM
Valid from the 07 at 12:00 until the 08 at 12:00 UTC


071122Z 0712/0812 VRB03KT P6SM SCT050
FM071700 29007KT P6SM SCT050
FM080300 VRB03KT P6SM SCT070
KZTL FIR / North America



MET'MAP, your aeronautical weather chart ! - Copyright ORBIFLY December 2007 - Disclaimer

ORBIFLY MET'MAP TEAM :

Programming & Development : Alexandra Zaïnal
Concept & original design : Baudouin d'Aumeries
Assistance for programming : Marc-Olivier Méhu
Technical & hardware support : Manuel Goepfert

Contact : metmap@orbifly.com




SOURCES & CREDITS :

   NOAA       Earth
Advisory